createdAt,value
2018-09-23T00:03:17.312Z,94.00
2018-09-23T00:08:21.291Z,93.70
2018-09-23T00:13:25.216Z,94.10
2018-09-23T00:18:28.908Z,93.80
2018-09-23T00:23:32.589Z,94.10
2018-09-23T00:28:36.082Z,93.40
2018-09-23T00:33:39.564Z,93.60
2018-09-23T00:38:43.640Z,93.70
2018-09-23T00:43:48.055Z,93.60
2018-09-23T00:48:52.253Z,93.60
2018-09-23T00:53:56.213Z,93.50
2018-09-23T00:59:00.061Z,94.50
2018-09-23T01:04:03.690Z,94.90
2018-09-23T01:09:09.390Z,94.00
2018-09-23T01:14:13.211Z,93.00
2018-09-23T01:19:17.195Z,91.70
2018-09-23T01:24:21.130Z,90.40
2018-09-23T01:34:53.041Z,90.20
2018-09-23T01:39:56.984Z,90.20
2018-09-23T01:45:01.251Z,90.40
2018-09-23T01:50:05.286Z,90.20
2018-09-23T01:55:09.065Z,90.40
2018-09-23T02:00:12.535Z,90.80
2018-09-23T02:05:16.047Z,90.70
2018-09-23T02:10:19.557Z,90.70
2018-09-23T02:15:23.076Z,91.20
2018-09-23T02:20:26.758Z,92.00
2018-09-23T02:25:31.353Z,91.40
2018-09-23T02:30:35.380Z,91.70
2018-09-23T02:35:39.320Z,91.10
2018-09-23T02:40:43.444Z,91.50
2018-09-23T02:45:47.005Z,91.60
2018-09-23T02:50:50.519Z,90.70
2018-09-23T02:55:53.996Z,89.90
2018-09-23T03:00:57.482Z,89.30
2018-09-23T03:06:01.599Z,89.30
2018-09-23T03:11:05.834Z,90.20
2018-09-23T03:16:09.499Z,90.40
2018-09-23T03:21:13.453Z,90.60
2018-09-23T03:26:16.994Z,91.70
2018-09-23T03:31:20.519Z,92.00
2018-09-23T03:36:24.501Z,92.00
2018-09-23T03:41:28.154Z,91.50
2018-09-23T03:46:31.984Z,91.30
2018-09-23T03:51:35.909Z,91.30
2018-09-23T03:56:39.908Z,91.20
2018-09-23T04:01:43.911Z,90.90
2018-09-23T04:06:48.097Z,91.40
2018-09-23T04:11:51.677Z,91.10
2018-09-23T04:16:56.395Z,91.10
2018-09-23T04:21:59.945Z,91.40
2018-09-23T04:27:04.047Z,91.30
2018-09-23T04:32:07.728Z,90.60
2018-09-23T04:37:11.738Z,90.60
2018-09-23T04:42:15.493Z,90.20
2018-09-23T04:47:19.014Z,89.40
2018-09-23T04:52:22.628Z,89.50
2018-09-23T04:57:26.276Z,89.50
2018-09-23T05:02:30.713Z,89.70
2018-09-23T05:07:34.314Z,89.10
2018-09-23T05:12:38.153Z,87.80
2018-09-23T05:17:41.867Z,88.50
2018-09-23T05:22:45.341Z,88.20
2018-09-23T05:27:48.849Z,87.10
2018-09-23T05:32:52.431Z,86.70
2018-09-23T05:37:55.933Z,86.60
2018-09-23T05:42:59.447Z,86.20
2018-09-23T05:48:02.908Z,86.90
2018-09-23T05:53:06.530Z,88.60
2018-09-23T05:58:09.990Z,89.40
2018-09-23T06:03:15.239Z,89.60
2018-09-23T06:08:19.418Z,90.40
2018-09-23T06:13:22.961Z,90.00
2018-09-23T06:18:26.695Z,88.90
2018-09-23T06:23:30.391Z,87.40
2018-09-23T06:28:34.017Z,87.70
2018-09-23T06:33:39.126Z,85.50
2018-09-23T06:38:43.315Z,84.50
2018-09-23T06:43:47.181Z,86.00
2018-09-23T06:48:51.124Z,85.20
2018-09-23T06:53:54.643Z,84.60
2018-09-23T06:58:58.156Z,83.00
2018-09-23T07:04:01.973Z,81.00
2018-09-23T07:09:07.524Z,79.50
2018-09-23T07:14:11.337Z,80.20
2018-09-23T07:19:16.398Z,81.00
2018-09-23T07:24:19.882Z,80.10
2018-09-23T07:29:23.534Z,81.10
2018-09-23T07:34:28.299Z,80.20
2018-09-23T07:39:32.210Z,79.40
2018-09-23T07:44:36.152Z,80.70
2018-09-23T07:49:40.021Z,81.40
2018-09-23T07:54:43.959Z,81.20
2018-09-23T07:59:47.437Z,82.00
2018-09-23T08:04:51.121Z,81.40
2018-09-23T08:09:54.654Z,81.30
2018-09-23T08:14:58.467Z,80.00
2018-09-23T08:20:03.142Z,77.70
2018-09-23T08:25:06.967Z,71.30
2018-09-23T08:30:11.703Z,68.00
2018-09-23T08:35:15.545Z,70.30
2018-09-23T08:40:19.093Z,73.40
2018-09-23T08:45:22.603Z,74.80
2018-09-23T08:50:26.231Z,76.70
2018-09-23T08:55:31.828Z,76.10
2018-09-23T09:00:36.208Z,76.00
2018-09-23T09:05:39.645Z,76.00
2018-09-23T09:10:43.313Z,74.90
2018-09-23T09:15:46.831Z,67.90
2018-09-23T09:20:50.369Z,68.20
2018-09-23T09:25:54.742Z,71.40
2018-09-23T09:30:58.885Z,64.60
2018-09-23T09:36:03.555Z,54.90
2018-09-23T09:41:22.674Z,54.00
2018-09-23T09:46:26.560Z,54.80
2018-09-23T09:51:30.102Z,58.70
2018-09-23T09:56:34.079Z,59.10
2018-09-23T10:01:38.487Z,56.10
2018-09-23T10:06:42.488Z,56.80
2018-09-23T10:11:46.808Z,58.40
2018-09-23T10:16:50.717Z,59.30
2018-09-23T10:21:54.577Z,60.60
2018-09-23T10:26:58.295Z,61.30
2018-09-23T10:32:03.081Z,60.50
2018-09-23T10:37:07.234Z,61.50
2018-09-23T10:42:10.927Z,61.80
2018-09-23T10:47:14.925Z,60.60
2018-09-23T10:52:22.991Z,60.00
2018-09-23T10:57:29.959Z,60.70
2018-09-23T11:02:35.908Z,62.00
2018-09-23T11:07:39.598Z,61.80
2018-09-23T11:12:43.756Z,62.60
2018-09-23T11:17:47.607Z,62.30
2018-09-23T11:22:51.224Z,61.80
2018-09-23T11:27:55.083Z,63.20
2018-09-23T11:32:58.664Z,64.20
2018-09-23T11:38:03.059Z,63.40
2018-09-23T11:43:07.153Z,60.60
2018-09-23T11:48:11.809Z,61.60
2018-09-23T11:53:15.372Z,60.20
2018-09-23T11:58:18.876Z,62.20
2018-09-23T12:03:22.443Z,62.60
2018-09-23T12:08:26.833Z,62.80
2018-09-23T12:13:32.864Z,64.30
2018-09-23T12:18:36.664Z,64.60
2018-09-23T12:23:40.330Z,65.30
2018-09-23T12:28:43.946Z,64.60
2018-09-23T12:33:47.661Z,66.70
2018-09-23T12:38:51.315Z,65.70
2018-09-23T12:43:54.989Z,64.50
2018-09-23T12:48:58.725Z,66.80
2018-09-23T12:54:02.940Z,67.10
2018-09-23T12:59:06.836Z,67.00
2018-09-23T13:04:10.578Z,67.70
2018-09-23T13:09:14.196Z,67.40
2018-09-23T13:14:20.657Z,67.00
2018-09-23T13:19:24.804Z,67.10
2018-09-23T13:24:29.095Z,65.50
2018-09-23T13:29:32.951Z,65.00
2018-09-23T13:34:36.550Z,63.70
2018-09-23T13:39:40.503Z,61.60
2018-09-23T13:44:44.567Z,59.80
2018-09-23T13:49:48.877Z,62.00
2018-09-23T13:54:53.145Z,61.70
2018-09-23T13:59:58.474Z,60.50
2018-09-23T14:05:05.145Z,61.30
2018-09-23T14:10:09.181Z,62.80
2018-09-23T14:15:13.013Z,63.10
2018-09-23T14:20:16.984Z,63.00
2018-09-23T14:25:21.111Z,62.60
2018-09-23T14:30:25.290Z,63.00
2018-09-23T14:35:29.201Z,62.80
2018-09-23T14:40:33.937Z,63.30
2018-09-23T14:45:37.803Z,61.90
2018-09-23T14:50:41.604Z,61.40
2018-09-23T14:55:45.157Z,61.90
2018-09-23T15:00:49.516Z,62.60
2018-09-23T15:05:53.105Z,63.50
2018-09-23T15:10:56.893Z,63.40
2018-09-23T15:16:00.645Z,63.60
2018-09-23T15:21:04.542Z,63.20
2018-09-23T15:26:08.205Z,61.50
2018-09-23T15:31:11.806Z,61.40
2018-09-23T15:36:15.542Z,62.00
2018-09-23T15:41:19.202Z,62.10
2018-09-23T15:46:24.190Z,61.70
2018-09-23T15:51:28.721Z,61.30
2018-09-23T15:56:32.908Z,62.00
2018-09-23T16:01:36.794Z,61.10
2018-09-23T16:06:40.325Z,61.90
2018-09-23T16:11:43.903Z,62.40
2018-09-23T16:16:47.711Z,63.50
2018-09-23T16:21:51.642Z,64.40
2018-09-23T16:26:55.331Z,65.00
2018-09-23T16:31:59.299Z,65.30
2018-09-23T16:37:03.048Z,65.10
2018-09-23T16:42:10.768Z,64.70
2018-09-23T16:47:14.781Z,65.10
2018-09-23T16:52:18.946Z,65.00
2018-09-23T16:57:23.831Z,65.00
2018-09-23T17:02:27.522Z,65.00
2018-09-23T17:07:31.280Z,65.20
2018-09-23T17:12:35.566Z,66.60
2018-09-23T17:17:42.087Z,66.30
2018-09-23T17:22:46.579Z,66.50
2018-09-23T17:27:50.826Z,66.30
2018-09-23T17:32:55.128Z,66.80
2018-09-23T17:37:59.201Z,79.40
2018-09-23T17:43:03.192Z,88.80
2018-09-23T17:48:06.847Z,93.30
2018-09-23T17:53:10.454Z,95.00
2018-09-23T17:58:14.025Z,96.60
2018-09-23T18:03:17.671Z,96.20
2018-09-23T18:08:21.447Z,95.90
2018-09-23T18:13:26.733Z,95.60
2018-09-23T18:18:31.507Z,94.90
2018-09-23T18:23:35.207Z,95.70
2018-09-23T18:28:38.842Z,95.20
2018-09-23T18:33:42.610Z,96.20
2018-09-23T18:38:48.318Z,96.20
2018-09-23T18:43:52.388Z,94.90
2018-09-23T18:48:56.704Z,94.70
2018-09-23T18:54:05.726Z,95.10
2018-09-23T18:59:09.658Z,95.30
2018-09-23T19:04:13.716Z,94.30
2018-09-23T19:09:17.752Z,95.50
2018-09-23T19:14:22.226Z,95.20
2018-09-23T19:19:31.580Z,94.70
2018-09-23T19:24:36.183Z,94.50
2018-09-23T19:29:39.853Z,94.50
2018-09-23T19:34:43.396Z,92.60
2018-09-23T19:39:47.634Z,92.40
2018-09-23T19:44:51.586Z,93.90
2018-09-23T19:49:55.700Z,93.90
2018-09-23T19:54:59.517Z,94.10
2018-09-23T20:00:03.925Z,94.50
2018-09-23T20:05:08.128Z,94.50
2018-09-23T20:10:11.683Z,94.00
2018-09-23T20:15:17.677Z,93.80
2018-09-23T20:20:21.700Z,93.70
2018-09-23T20:25:26.012Z,93.40
2018-09-23T20:30:29.712Z,93.80
2018-09-23T20:35:33.239Z,93.10
2018-09-23T20:40:37.163Z,92.90
2018-09-23T20:45:41.904Z,93.10
2018-09-23T20:50:45.873Z,93.30
2018-09-23T20:55:49.906Z,92.70
2018-09-23T21:00:53.497Z,92.80
2018-09-23T21:05:57.065Z,92.60
2018-09-23T21:11:00.590Z,92.40
2018-09-23T21:16:04.188Z,92.40
2018-09-23T21:21:08.247Z,92.30
2018-09-23T21:26:11.997Z,91.40
2018-09-23T21:31:15.731Z,92.20
2018-09-23T21:36:19.834Z,92.00
2018-09-23T21:41:23.729Z,93.20
2018-09-23T21:46:27.370Z,91.30
2018-09-23T21:51:31.335Z,92.10
2018-09-23T21:56:34.871Z,91.60
2018-09-23T22:01:38.452Z,90.90
2018-09-23T22:06:42.293Z,92.00
2018-09-23T22:11:46.067Z,90.60
2018-09-23T22:16:50.345Z,90.20
2018-09-23T22:21:54.045Z,89.90
2018-09-23T22:26:57.683Z,90.20
2018-09-23T22:32:01.407Z,90.50
2018-09-23T22:37:05.023Z,91.50
2018-09-23T22:42:09.037Z,91.10
2018-09-23T22:47:12.890Z,93.40
2018-09-23T22:52:16.671Z,93.40
2018-09-23T22:57:20.797Z,91.60
2018-09-23T23:02:24.744Z,92.10
2018-09-23T23:07:28.401Z,91.80
2018-09-23T23:12:31.900Z,93.40
2018-09-23T23:17:35.488Z,93.10
2018-09-23T23:22:39.160Z,92.50
2018-09-23T23:27:42.678Z,92.50
2018-09-23T23:32:46.536Z,91.70
2018-09-23T23:37:51.002Z,92.20
2018-09-23T23:42:54.865Z,92.20
2018-09-23T23:47:58.851Z,90.90
2018-09-23T23:53:02.742Z,91.20
2018-09-23T23:58:06.648Z,91.80
